Time;durP1;ratioP1;P1;durP2;ratioP2;P2;SDS_P1;SDS_P2;PMS_P1;PMS_P2;Temp;Humidity;BMP_temperature;BMP_pressure;BME280_temperature;BME280_humidity;BME280_pressure;Samples;Min_cycle;Max_cycle;Signal;HPM_P1;HPM_P2
2021/08/10 05:54:02;;;;;;;11.90;8.02;;;15.50;99.90;;;;;;3622132;39;1323640;-87
2021/08/10 05:56:28;;;;;;;9.80;6.40;;;15.50;99.90;;;;;;3637194;39;20048;-89
2021/08/10 05:58:54;;;;;;;10.70;6.57;;;15.40;99.90;;;;;;3641257;39;20050;-89
2021/08/10 06:01:20;;;;;;;16.52;7.63;;;15.50;99.90;;;;;;3639640;39;20316;-86
2021/08/10 06:03:45;;;;;;;8.68;6.72;;;15.60;99.90;;;;;;3638773;39;20044;-89
2021/08/10 06:06:11;;;;;;;13.48;7.32;;;15.50;99.90;;;;;;3639846;39;20385;-88
2021/08/10 06:08:55;;;;;;;11.95;6.00;;;15.60;99.90;;;;;;3639188;39;20054;-89
2021/08/10 06:11:21;;;;;;;9.95;5.25;;;15.70;99.90;;;;;;3635129;39;20038;-89
2021/08/10 06:13:46;;;;;;;9.35;5.20;;;15.80;99.90;;;;;;3644708;39;20054;-86
2021/08/10 06:16:12;;;;;;;17.88;5.15;;;15.70;99.90;;;;;;3640044;39;20441;-87
2021/08/10 06:18:38;;;;;;;6.70;4.05;;;15.70;99.90;;;;;;3626643;39;20354;-88
2021/08/10 06:21:03;;;;;;;6.35;4.22;;;15.80;99.90;;;;;;3626257;39;20046;-87
2021/08/10 06:23:29;;;;;;;7.28;4.22;;;15.90;99.90;;;;;;3638377;39;20099;-87
2021/08/10 06:25:55;;;;;;;7.35;3.38;;;15.90;99.90;;;;;;3629103;39;20083;-89
2021/08/10 06:28:20;;;;;;;10.25;3.28;;;15.80;99.90;;;;;;3634906;39;20050;-86
2021/08/10 06:30:49;;;;;;;6.72;3.40;;;15.80;99.90;;;;;;3649323;39;20419;-88
2021/08/10 06:33:15;;;;;;;7.53;3.13;;;15.70;99.90;;;;;;3643688;39;20055;-87
2021/08/10 06:35:41;;;;;;;7.53;3.15;;;15.80;99.90;;;;;;3641304;39;20058;-89
2021/08/10 06:38:09;;;;;;;6.40;3.10;;;15.90;99.90;;;;;;3630796;39;20053;-89
2021/08/10 06:40:35;;;;;;;6.22;3.00;;;15.90;99.90;;;;;;3645807;39;20097;-87
2021/08/10 06:43:01;;;;;;;4.72;3.08;;;15.90;99.90;;;;;;3639394;39;20050;-86
2021/08/10 06:45:27;;;;;;;6.47;2.92;;;15.80;99.90;;;;;;3628660;39;20083;-87
2021/08/10 06:47:53;;;;;;;3.60;2.60;;;15.80;99.90;;;;;;3637820;39;20054;-87
2021/08/10 06:50:19;;;;;;;4.90;2.83;;;15.80;99.90;;;;;;3639009;39;20053;-90
2021/08/10 06:52:46;;;;;;;7.13;2.88;;;15.90;99.90;;;;;;3640546;39;20049;-88
2021/08/10 06:55:13;;;;;;;3.58;2.45;;;16.00;99.90;;;;;;3638111;39;20304;-91
2021/08/10 06:57:40;;;;;;;4.95;3.10;;;16.00;99.90;;;;;;3624154;39;20050;-87
2021/08/10 07:00:07;;;;;;;5.43;2.47;;;16.00;99.90;;;;;;3638390;39;20055;-87
2021/08/10 07:02:33;;;;;;;5.55;2.60;;;16.00;99.90;;;;;;3643654;39;20074;-85
2021/08/10 07:04:58;;;;;;;4.00;2.33;;;16.00;99.90;;;;;;3629322;39;20042;-86
2021/08/10 07:07:25;;;;;;;6.95;2.70;;;15.90;99.90;;;;;;3632994;39;20074;-88
2021/08/10 07:09:50;;;;;;;4.05;2.38;;;15.80;99.90;;;;;;3622190;39;20130;-88
2021/08/10 07:12:16;;;;;;;5.22;2.47;;;15.80;99.90;;;;;;3632428;39;20055;-87
2021/08/10 07:14:42;;;;;;;3.85;2.35;;;16.10;99.90;;;;;;3627062;39;20058;-85
2021/08/10 07:17:08;;;;;;;6.63;2.50;;;16.00;99.90;;;;;;3634033;39;20046;-86
2021/08/10 07:19:34;;;;;;;4.07;2.10;;;16.20;99.90;;;;;;3636061;39;20049;-86
2021/08/10 07:22:00;;;;;;;4.88;2.60;;;16.30;99.90;;;;;;3633463;39;20045;-87
2021/08/10 07:24:25;;;;;;;4.53;2.55;;;16.50;99.90;;;;;;3634344;39;20131;-85
2021/08/10 07:26:52;;;;;;;8.77;2.38;;;16.50;99.90;;;;;;3633372;39;20065;-85
2021/08/10 07:29:19;;;;;;;10.90;3.28;;;16.70;99.90;;;;;;3627228;39;20054;-86
2021/08/10 07:31:44;;;;;;;7.05;3.40;;;16.80;99.90;;;;;;3627066;39;20054;-87
2021/08/10 07:34:10;;;;;;;7.60;3.40;;;16.90;99.90;;;;;;3627359;39;20420;-85
2021/08/10 07:36:36;;;;;;;7.72;3.70;;;17.10;99.90;;;;;;3628475;39;20059;-85
2021/08/10 07:39:03;;;;;;;13.00;4.20;;;17.20;99.90;;;;;;3632707;39;20057;-86
2021/08/10 07:41:29;;;;;;;8.32;4.47;;;17.30;99.90;;;;;;3621668;39;20134;-87
2021/08/10 07:43:55;;;;;;;11.35;3.70;;;17.30;99.90;;;;;;3626664;39;20062;-87
2021/08/10 07:46:20;;;;;;;12.15;4.20;;;17.50;99.90;;;;;;3632767;39;20420;-85
2021/08/10 07:48:46;;;;;;;10.88;4.32;;;17.70;99.90;;;;;;3636156;39;20115;-87
2021/08/10 07:51:12;;;;;;;9.23;4.43;;;18.00;99.90;;;;;;3621037;39;20058;-86
2021/08/10 07:53:38;;;;;;;8.95;3.83;;;18.50;99.90;;;;;;3627419;39;20075;-87
2021/08/10 07:56:04;;;;;;;11.15;4.55;;;18.20;99.90;;;;;;3631224;39;20075;-87
2021/08/10 07:58:31;;;;;;;8.90;3.90;;;18.50;99.90;;;;;;3629967;39;20065;-87
2021/08/10 08:00:57;;;;;;;11.85;4.68;;;18.80;99.90;;;;;;3631457;39;20053;-87
2021/08/10 08:03:23;;;;;;;13.00;4.18;;;18.40;99.90;;;;;;3635774;39;20055;-89
2021/08/10 08:05:49;;;;;;;7.25;4.15;;;18.80;99.90;;;;;;3636603;39;20054;-88
2021/08/10 08:08:14;;;;;;;12.43;4.25;;;18.30;99.90;;;;;;3636044;39;20147;-88
2021/08/10 08:10:40;;;;;;;10.00;4.30;;;18.50;99.90;;;;;;3628172;39;20094;-88
2021/08/10 08:13:06;;;;;;;22.25;3.90;;;18.50;99.90;;;;;;3618528;39;20057;-86
2021/08/10 08:15:34;;;;;;;13.10;3.67;;;18.50;99.90;;;;;;3631429;39;20053;-87
2021/08/10 08:18:00;;;;;;;6.93;3.38;;;18.40;99.90;;;;;;3635741;39;20054;-86
2021/08/10 08:20:27;;;;;;;9.93;4.45;;;18.10;99.90;;;;;;3638985;39;20058;-86
2021/08/10 08:22:52;;;;;;;11.35;3.95;;;18.20;99.90;;;;;;3631738;39;20110;-87
2021/08/10 08:25:18;;;;;;;11.13;3.38;;;18.50;99.90;;;;;;3636280;39;20054;-88
2021/08/10 08:27:44;;;;;;;8.68;3.40;;;18.80;99.90;;;;;;3626422;39;20057;-91
2021/08/10 08:30:11;;;;;;;17.17;3.88;;;18.80;99.90;;;;;;3625403;39;20385;-86
2021/08/10 08:32:36;;;;;;;8.18;3.08;;;18.80;99.90;;;;;;3633146;39;20050;-87
2021/08/10 08:35:02;;;;;;;7.25;3.50;;;18.60;99.90;;;;;;3636931;39;20058;-87
2021/08/10 08:37:28;;;;;;;11.20;3.80;;;18.20;99.90;;;;;;3629749;39;20046;-87
2021/08/10 08:39:54;;;;;;;9.32;3.88;;;18.10;99.90;;;;;;3637134;39;20062;-87
2021/08/10 08:42:21;;;;;;;10.80;3.83;;;18.20;99.90;;;;;;3626388;39;20129;-87
2021/08/10 08:44:48;;;;;;;12.85;4.15;;;18.10;99.90;;;;;;3616834;39;20046;-89
2021/08/10 08:47:18;;;;;;;9.70;4.47;;;18.20;99.90;;;;;;3626445;39;20167;-88
2021/08/10 08:49:48;;;;;;;10.80;3.78;;;18.40;99.90;;;;;;3632911;39;20069;-89
2021/08/10 08:52:16;;;;;;;7.80;3.40;;;18.30;99.90;;;;;;3636239;39;20489;-86
2021/08/10 08:54:42;;;;;;;13.90;4.35;;;18.60;99.90;;;;;;3634516;39;20076;-85
2021/08/10 08:57:09;;;;;;;15.63;4.22;;;19.30;99.90;;;;;;3625899;39;20345;-86
2021/08/10 08:59:39;;;;;;;9.48;4.38;;;19.10;99.90;;;;;;3619699;39;20082;-87
2021/08/10 09:02:05;;;;;;;9.90;4.13;;;19.00;99.90;;;;;;3634836;39;20146;-86
2021/08/10 09:04:30;;;;;;;6.70;3.63;;;19.40;99.90;;;;;;3625105;39;20381;-85
2021/08/10 09:06:56;;;;;;;11.55;4.40;;;19.30;99.90;;;;;;3635004;39;20086;-83
2021/08/10 09:09:27;;;;;;;12.02;4.28;;;19.70;99.90;;;;;;3627194;39;20310;-85
2021/08/10 09:12:01;;;;;;;7.88;3.10;;;19.80;99.90;;;;;;3632490;39;20070;-86
2021/08/10 09:14:47;;;;;;;9.02;3.42;;;19.70;99.90;;;;;;3625902;39;20054;-85
2021/08/10 09:17:23;;;;;;;9.40;3.78;;;19.50;99.90;;;;;;3629291;39;20369;-85
2021/08/10 09:19:54;;;;;;;9.65;3.33;;;19.50;99.90;;;;;;3627525;39;20412;-84
2021/08/10 09:22:22;;;;;;;10.13;3.38;;;19.50;99.90;;;;;;3617487;39;20061;-84
2021/08/10 09:25:03;;;;;;;7.72;3.42;;;19.40;99.90;;;;;;3616959;39;20390;-84
2021/08/10 09:27:39;;;;;;;7.05;3.45;;;19.50;99.90;;;;;;3630638;39;20045;-84
2021/08/10 09:30:14;;;;;;;8.35;3.13;;;21.00;99.90;;;;;;3633378;39;20110;-85
2021/08/10 09:32:56;;;;;;;7.68;3.38;;;22.10;99.90;;;;;;3624487;39;20081;-85
2021/08/10 09:35:24;;;;;;;5.70;2.70;;;21.60;99.90;;;;;;3626978;39;20057;-85
2021/08/10 09:38:06;;;;;;;6.90;2.95;;;20.80;99.90;;;;;;3631155;39;20103;-83
2021/08/10 09:40:34;;;;;;;7.35;2.95;;;21.80;99.90;;;;;;3632395;39;20316;-85
2021/08/10 09:43:20;;;;;;;10.27;2.85;;;21.50;99.90;;;;;;3620493;39;20053;-84
2021/08/10 09:45:47;;;;;;;6.53;3.13;;;22.40;99.90;;;;;;3629349;39;20062;-85
2021/08/10 09:48:17;;;;;;;5.82;3.40;;;22.80;99.90;;;;;;3630880;39;20050;-85
2021/08/10 09:50:44;;;;;;;3.85;2.90;;;22.50;99.90;;;;;;3629474;39;20051;-84
2021/08/10 09:53:25;;;;;;;5.93;2.05;;;22.20;99.90;;;;;;3630224;39;20046;-84
2021/08/10 09:55:55;;;;;;;5.25;2.15;;;22.30;99.90;;;;;;3631721;39;20043;-87
2021/08/10 09:58:21;;;;;;;3.22;2.22;;;22.40;99.90;;;;;;3631942;39;20089;-86
2021/08/10 10:00:49;;;;;;;4.63;2.08;;;23.00;99.90;;;;;;3624676;39;20050;-86
2021/08/10 10:03:20;;;;;;;2.65;1.88;;;24.10;99.90;;;;;;3626413;39;20073;-85
2021/08/10 10:05:47;;;;;;;3.25;1.80;;;24.80;99.90;;;;;;3628464;39;20134;-88
2021/08/10 10:08:14;;;;;;;2.85;2.10;;;24.90;99.90;;;;;;3626059;39;20051;-84
2021/08/10 10:10:41;;;;;;;3.35;1.88;;;25.50;99.90;;;;;;3630105;39;20046;-85
2021/08/10 10:13:09;;;;;;;2.55;1.95;;;24.60;99.90;;;;;;3635350;39;20409;-86
2021/08/10 10:15:35;;;;;;;4.30;1.98;;;24.10;99.90;;;;;;3617347;39;20083;-85
2021/08/10 10:18:01;;;;;;;5.70;2.05;;;23.80;99.90;;;;;;3625710;39;20057;-88
2021/08/10 10:20:27;;;;;;;4.72;2.22;;;23.40;99.90;;;;;;3625909;39;20045;-87
2021/08/10 10:22:53;;;;;;;6.32;2.60;;;22.60;99.90;;;;;;3636100;39;20354;-86
2021/08/10 10:25:23;;;;;;;8.65;3.65;;;21.50;99.90;;;;;;3626673;39;20057;-87
2021/08/10 10:27:49;;;;;;;11.10;8.25;;;21.50;99.90;;;;;;3625286;39;20050;-83
2021/08/10 10:30:15;;;;;;;9.98;5.70;;;21.60;99.90;;;;;;3628729;39;20061;-86
2021/08/10 10:32:41;;;;;;;6.35;3.22;;;21.50;99.90;;;;;;3627576;39;20058;-86
2021/08/10 10:35:10;;;;;;;5.07;3.20;;;21.60;99.90;;;;;;3626232;39;20045;-86
2021/08/10 10:37:37;;;;;;;5.10;2.92;;;21.80;99.90;;;;;;3635451;39;20133;-88
2021/08/10 10:40:07;;;;;;;5.43;3.10;;;21.60;99.90;;;;;;3636450;39;20042;-86
2021/08/10 10:42:34;;;;;;;7.95;3.50;;;21.80;99.90;;;;;;3635583;39;20263;-86
2021/08/10 10:45:00;;;;;;;10.05;3.70;;;20.60;99.90;;;;;;3622272;39;20058;-88
2021/08/10 10:47:28;;;;;;;8.23;3.80;;;20.60;99.90;;;;;;3622262;39;20054;-87
2021/08/10 10:49:57;;;;;;;7.50;3.50;;;20.70;99.90;;;;;;3621694;39;20050;-87
2021/08/10 10:52:27;;;;;;;7.65;4.93;;;20.70;99.90;;;;;;3637473;39;20076;-87
2021/08/10 10:54:54;;;;;;;9.05;4.35;;;20.80;99.90;;;;;;3624236;39;20047;-87
2021/08/10 10:57:29;;;;;;;6.75;3.88;;;20.50;99.90;;;;;;3628393;39;20050;-88
2021/08/10 11:00:08;;;;;;;8.02;4.47;;;20.20;99.90;;;;;;3624262;39;20220;-87
2021/08/10 11:02:39;;;;;;;9.88;4.40;;;20.30;99.90;;;;;;3617457;39;20324;-88
2021/08/10 11:05:07;;;;;;;7.05;3.47;;;20.30;99.90;;;;;;3635268;39;20050;-86
2021/08/10 11:07:53;;;;;;;7.53;3.40;;;20.80;99.90;;;;;;3628977;39;20401;-87
2021/08/10 11:10:53;;;;;;;7.38;3.30;;;21.60;99.90;;;;;;3627487;39;20046;-88
2021/08/10 11:13:21;;;;;;;5.07;2.38;;;21.00;99.90;;;;;;3636919;39;20302;-86
2021/08/10 11:15:47;;;;;;;6.45;2.70;;;21.20;99.90;;;;;;3620334;39;20391;-88
2021/08/10 11:18:12;;;;;;;6.57;2.63;;;22.30;99.90;;;;;;3629533;39;20050;-87
2021/08/10 11:20:49;;;;;;;4.45;2.80;;;22.30;99.90;;;;;;3630186;39;20427;-88
2021/08/10 11:23:21;;;;;;;6.05;2.58;;;22.70;99.90;;;;;;3627090;39;20406;-88
2021/08/10 11:25:52;;;;;;;4.35;2.08;;;22.20;99.90;;;;;;3628745;39;20308;-88
2021/08/10 11:28:33;;;;;;;8.02;2.85;;;22.30;99.90;;;;;;3632231;39;20082;-86
2021/08/10 11:31:04;;;;;;;4.88;2.45;;;21.90;99.90;;;;;;3636740;39;20133;-88
2021/08/10 11:33:37;;;;;;;2.88;2.08;;;22.10;99.90;;;;;;3632132;39;20122;-87
2021/08/10 11:36:12;;;;;;;7.15;2.13;;;22.80;99.90;;;;;;3631086;39;20050;-86
2021/08/10 11:38:43;;;;;;;4.55;2.75;;;22.90;99.90;;;;;;3620143;39;20094;-87
2021/08/10 11:41:19;;;;;;;2.73;2.00;;;23.30;99.90;;;;;;3622281;39;20218;-88
2021/08/10 11:43:47;;;;;;;4.90;2.53;;;23.10;99.90;;;;;;3636339;39;20050;-87
2021/08/10 11:46:20;;;;;;;4.22;2.20;;;23.30;99.90;;;;;;3626988;39;20390;-87
2021/08/10 11:48:47;;;;;;;;;;;23.50;99.90;;;;;;3632938;39;20058;-85
2021/08/10 11:51:22;;;;;;;3.50;2.05;;;23.30;99.90;;;;;;3638330;39;19935;-87
2021/08/10 11:53:49;;;;;;;4.80;2.60;;;23.80;99.90;;;;;;3629706;39;20042;-84
2021/08/10 11:56:29;;;;;;;4.28;2.40;;;24.30;99.90;;;;;;3626453;39;20043;-87
2021/08/10 11:58:57;;;;;;;4.97;2.15;;;24.20;99.90;;;;;;3627691;39;20051;-85
2021/08/10 12:01:23;;;;;;;3.05;1.92;;;24.50;99.90;;;;;;3626842;39;20326;-85
2021/08/10 12:03:50;;;;;;;4.50;2.25;;;24.80;99.90;;;;;;3634669;39;20085;-87
2021/08/10 12:06:15;;;;;;;2.22;1.70;;;24.40;99.90;;;;;;3637062;39;20483;-86
2021/08/10 12:08:41;;;;;;;3.47;2.03;;;23.80;99.90;;;;;;3632803;39;20050;-86
2021/08/10 12:11:08;;;;;;;4.55;2.10;;;24.10;99.90;;;;;;3636302;39;20389;-85
2021/08/10 12:13:39;;;;;;;3.20;2.40;;;24.20;99.90;;;;;;3631052;39;20070;-86
2021/08/10 12:16:09;;;;;;;3.90;2.53;;;24.10;99.90;;;;;;3627228;39;20046;-85
2021/08/10 12:18:47;;;;;;;3.85;2.42;;;24.10;99.90;;;;;;3629961;39;20496;-88
2021/08/10 12:21:13;;;;;;;5.00;2.80;;;24.00;99.90;;;;;;3637653;39;20158;-87
2021/08/10 12:23:49;;;;;;;3.40;2.33;;;23.60;99.90;;;;;;3635253;39;20125;-87
2021/08/10 12:26:20;;;;;;;5.80;2.22;;;23.60;99.90;;;;;;3628460;39;20047;-87
2021/08/10 12:29:04;;;;;;;5.28;2.53;;;23.60;99.90;;;;;;3627853;39;20053;-87
2021/08/10 12:31:34;;;;;;;6.13;2.40;;;23.70;99.90;;;;;;3628319;39;20054;-91
2021/08/10 12:34:00;;;;;;;3.45;2.05;;;23.30;99.90;;;;;;3625850;39;20143;-88
2021/08/10 12:36:26;;;;;;;4.30;2.25;;;23.30;99.90;;;;;;3625697;39;20412;-89
2021/08/10 12:38:52;;;;;;;4.38;2.17;;;22.60;99.90;;;;;;3627032;39;20416;-87
2021/08/10 12:41:25;;;;;;;3.50;2.30;;;22.90;99.90;;;;;;3626390;39;20050;-84
2021/08/10 12:43:52;;;;;;;5.30;1.90;;;22.70;99.90;;;;;;3617242;39;20073;-88
2021/08/10 12:46:44;;;;;;;3.65;2.10;;;22.40;99.90;;;;;;3632693;39;20394;-87
2021/08/10 12:49:16;;;;;;;3.63;2.10;;;22.70;99.90;;;;;;3621918;39;20170;-89
2021/08/10 12:51:57;;;;;;;4.20;2.10;;;23.40;99.90;;;;;;3627287;39;20058;-87
2021/08/10 12:54:26;;;;;;;9.17;2.90;;;23.90;99.90;;;;;;3618180;39;20046;-88
2021/08/10 12:56:52;;;;;;;3.33;2.30;;;24.00;99.90;;;;;;3630903;39;20294;-88
2021/08/10 12:59:18;;;;;;;4.13;2.28;;;24.00;99.90;;;;;;3638942;39;20179;-87
2021/08/10 13:01:45;;;;;;;3.70;2.30;;;23.80;99.90;;;;;;3634120;39;20382;-87
2021/08/10 13:04:13;;;;;;;3.95;2.30;;;23.80;99.90;;;;;;3634997;39;20057;-87
2021/08/10 13:06:40;;;;;;;4.65;2.20;;;24.10;99.90;;;;;;3634333;39;20050;-88
2021/08/10 13:09:07;;;;;;;3.80;2.35;;;24.10;99.90;;;;;;3636842;39;20308;-88
2021/08/10 13:11:33;;;;;;;2.78;2.20;;;24.40;99.90;;;;;;3631500;39;20227;-89
2021/08/10 13:14:07;;;;;;;4.15;2.05;;;24.50;99.90;;;;;;3633331;39;20346;-89
2021/08/10 13:16:38;;;;;;;4.47;2.30;;;24.20;99.90;;;;;;3627198;39;20134;-89
2021/08/10 13:19:16;;;;;;;7.60;2.33;;;23.80;99.90;;;;;;3633056;39;20351;-89
2021/08/10 13:22:02;;;;;;;4.22;2.60;;;23.60;99.90;;;;;;3632271;39;20141;-88
2021/08/10 13:24:27;;;;;;;5.07;2.40;;;23.20;99.90;;;;;;3633207;39;20118;-88
2021/08/10 13:26:55;;;;;;;5.03;2.55;;;23.60;99.90;;;;;;3627362;39;20050;-86
2021/08/10 13:29:36;;;;;;;5.60;2.83;;;24.00;99.90;;;;;;3634093;39;20505;-86
2021/08/10 13:32:02;;;;;;;3.38;2.13;;;24.10;99.90;;;;;;3621293;39;20573;-90
2021/08/10 13:34:43;;;;;;;5.63;2.88;;;24.00;99.90;;;;;;3619528;39;20058;-87
2021/08/10 13:37:08;;;;;;;4.15;2.22;;;23.70;99.90;;;;;;3629050;39;20078;-89
2021/08/10 13:39:37;;;;;;;2.88;2.38;;;23.90;99.90;;;;;;3628639;39;20057;-89
2021/08/10 13:42:03;;;;;;;3.03;2.70;;;23.80;99.90;;;;;;3622847;39;20065;-90
2021/08/10 13:44:29;;;;;;;6.10;2.50;;;24.10;99.90;;;;;;3626845;39;20072;-88
2021/08/10 13:46:54;;;;;;;6.78;3.03;;;24.00;99.90;;;;;;3627330;39;20089;-88
2021/08/10 13:49:20;;;;;;;6.15;2.30;;;23.80;99.90;;;;;;3620512;39;20049;-89
2021/08/10 13:51:47;;;;;;;4.85;2.42;;;24.20;99.90;;;;;;3630123;39;20050;-89
2021/08/10 13:54:13;;;;;;;5.03;2.50;;;24.10;99.90;;;;;;3622235;39;20054;-87
2021/08/10 13:56:39;;;;;;;6.28;2.30;;;23.90;99.90;;;;;;3630394;39;20073;-88
2021/08/10 13:59:06;;;;;;;2.70;2.20;;;23.70;99.90;;;;;;3630942;39;20046;-88
2021/08/10 14:01:37;;;;;;;3.53;2.08;;;24.20;99.90;;;;;;3630052;39;20408;-89
2021/08/10 14:04:03;;;;;;;3.67;2.03;;;24.10;99.90;;;;;;3630249;39;20140;-87
2021/08/10 14:06:30;;;;;;;3.47;1.98;;;24.30;99.90;;;;;;3623344;39;20066;-88
2021/08/10 14:08:55;;;;;;;5.00;2.38;;;24.30;99.90;;;;;;3632014;39;20085;-87
2021/08/10 14:11:21;;;;;;;5.38;2.83;;;24.10;99.90;;;;;;3621984;39;20053;-87
2021/08/10 14:13:47;;;;;;;6.95;3.15;;;24.30;99.90;;;;;;3638531;39;20106;-88
2021/08/10 14:16:14;;;;;;;4.88;2.53;;;24.40;99.90;;;;;;3615101;39;20119;-88
2021/08/10 14:18:40;;;;;;;4.68;2.25;;;24.40;99.90;;;;;;3627833;39;20054;-87
2021/08/10 14:21:06;;;;;;;5.57;2.10;;;24.30;99.90;;;;;;3622130;39;20049;-87
2021/08/10 14:23:33;;;;;;;2.38;1.90;;;24.30;99.90;;;;;;3632484;39;20240;-89
2021/08/10 14:25:59;;;;;;;3.40;2.30;;;24.20;99.90;;;;;;3623390;39;20053;-87
2021/08/10 14:28:25;;;;;;;9.35;2.70;;;24.30;99.90;;;;;;3630169;39;20055;-86
2021/08/10 14:30:50;;;;;;;4.93;2.17;;;24.30;99.90;;;;;;3623587;39;20053;-86
2021/08/10 14:33:16;;;;;;;6.22;2.00;;;24.20;99.90;;;;;;3639310;39;20046;-86
2021/08/10 14:35:42;;;;;;;3.13;1.80;;;24.20;99.90;;;;;;3627999;39;20337;-88
2021/08/10 14:38:08;;;;;;;3.72;1.98;;;24.30;99.90;;;;;;3629239;39;20405;-89
2021/08/10 14:40:34;;;;;;;6.25;2.42;;;24.10;99.90;;;;;;3614611;39;20339;-88
2021/08/10 14:43:00;;;;;;;8.60;5.47;;;24.00;99.90;;;;;;3625986;39;20099;-89
2021/08/10 14:45:26;;;;;;;9.85;8.18;;;24.10;99.90;;;;;;3625948;39;20132;-89
2021/08/10 14:47:51;;;;;;;4.43;2.70;;;24.20;99.90;;;;;;3619666;39;20135;-89
2021/08/10 14:50:17;;;;;;;6.43;3.25;;;24.10;99.90;;;;;;3623025;39;20057;-88
2021/08/10 14:52:43;;;;;;;4.43;2.58;;;24.40;99.90;;;;;;3638173;39;20216;-87
2021/08/10 14:55:09;;;;;;;4.20;2.95;;;24.40;99.90;;;;;;3636907;39;20400;-89
2021/08/10 14:57:35;;;;;;;6.22;3.13;;;24.50;99.90;;;;;;3627021;39;20074;-88
2021/08/10 15:00:02;;;;;;;8.70;4.70;;;24.30;99.90;;;;;;3628280;39;20058;-89
2021/08/10 15:02:28;;;;;;;5.78;3.22;;;24.20;99.90;;;;;;3612343;39;20528;-85
2021/08/10 15:04:54;;;;;;;4.90;3.15;;;24.30;99.90;;;;;;3640512;39;20062;-89
2021/08/10 15:07:21;;;;;;;4.72;3.35;;;24.50;99.90;;;;;;3629090;39;20051;-87
2021/08/10 15:09:47;;;;;;;3.03;2.28;;;24.30;99.90;;;;;;3627413;39;20070;-85
2021/08/10 15:12:13;;;;;;;4.75;2.58;;;24.30;99.90;;;;;;3625910;39;20074;-87
2021/08/10 15:14:41;;;;;;;3.03;2.63;;;24.10;99.90;;;;;;3617922;39;20064;-87
2021/08/10 15:17:07;;;;;;;8.27;3.67;;;24.10;99.90;;;;;;3620768;39;20318;-84
2021/08/10 15:19:45;;;;;;;4.00;2.63;;;24.20;99.90;;;;;;3636130;39;20118;-88
2021/08/10 15:22:13;;;;;;;13.35;4.72;;;23.90;99.90;;;;;;3627521;39;20389;-86
2021/08/10 15:24:39;;;;;;;3.28;2.85;;;24.00;99.90;;;;;;3636009;39;20065;-83
2021/08/10 15:27:05;;;;;;;3.63;2.50;;;23.70;99.90;;;;;;3627016;39;20390;-87
2021/08/10 15:29:31;;;;;;;3.50;3.10;;;23.50;99.90;;;;;;3629438;39;20391;-86
2021/08/10 15:31:57;;;;;;;6.07;2.85;;;23.40;99.90;;;;;;3626583;39;20110;-87
2021/08/10 15:34:23;;;;;;;8.57;4.57;;;23.60;99.90;;;;;;3638788;39;20049;-87
2021/08/10 15:36:49;;;;;;;8.10;3.75;;;23.40;99.90;;;;;;3619763;39;20570;-88
2021/08/10 15:39:15;;;;;;;5.20;2.90;;;23.20;99.90;;;;;;3628430;39;20050;-86
2021/08/10 15:41:40;;;;;;;9.55;4.10;;;23.30;99.90;;;;;;3625782;39;20449;-87
2021/08/10 15:44:06;;;;;;;8.52;4.93;;;23.50;99.90;;;;;;3637754;39;20065;-86
2021/08/10 15:46:33;;;;;;;6.00;3.65;;;23.40;99.90;;;;;;3635422;39;20230;-85
2021/08/10 15:48:59;;;;;;;5.05;2.92;;;23.50;99.90;;;;;;3623617;39;20050;-87
2021/08/10 15:51:25;;;;;;;5.32;3.60;;;23.50;99.90;;;;;;3641142;39;20496;-86
2021/08/10 15:53:50;;;;;;;6.60;3.53;;;23.40;99.90;;;;;;3622655;39;20047;-85
2021/08/10 15:56:19;;;;;;;4.80;3.67;;;23.20;99.90;;;;;;3632697;39;20417;-86
2021/08/10 15:58:46;;;;;;;6.60;3.60;;;23.20;99.90;;;;;;3631250;39;20150;-90
2021/08/10 16:01:14;;;;;;;6.18;3.53;;;23.50;99.90;;;;;;3629665;39;20046;-90
2021/08/10 16:03:40;;;;;;;7.10;3.67;;;23.40;99.90;;;;;;3624978;39;20050;-89
2021/08/10 16:06:06;;;;;;;5.63;3.40;;;23.40;99.90;;;;;;3628278;39;20107;-85
2021/08/10 16:08:33;;;;;;;5.68;3.97;;;23.30;99.90;;;;;;3638841;39;20057;-87
2021/08/10 16:10:59;;;;;;;6.40;3.88;;;23.20;99.90;;;;;;3632249;39;20054;-86
2021/08/10 16:13:25;;;;;;;7.35;3.53;;;23.30;99.90;;;;;;3637837;39;20050;-85
2021/08/10 16:15:51;;;;;;;5.88;2.97;;;23.20;99.90;;;;;;3639778;39;20358;-86
2021/08/10 16:18:17;;;;;;;7.43;3.60;;;23.00;99.90;;;;;;3628317;39;20408;-86
2021/08/10 16:20:45;;;;;;;4.90;3.25;;;23.10;99.90;;;;;;3630961;39;20863;-88
2021/08/10 16:23:10;;;;;;;5.00;3.38;;;22.90;99.90;;;;;;3620874;39;20066;-87
2021/08/10 16:25:36;;;;;;;5.32;3.95;;;23.00;99.90;;;;;;3620817;39;20039;-86
2021/08/10 16:28:04;;;;;;;5.47;3.67;;;22.90;99.90;;;;;;3630105;39;20390;-85
2021/08/10 16:30:30;;;;;;;6.15;4.05;;;22.90;99.90;;;;;;3622650;39;20145;-89
2021/08/10 16:32:56;;;;;;;7.80;3.60;;;22.90;99.90;;;;;;3635469;39;20086;-89
2021/08/10 16:35:22;;;;;;;6.05;3.85;;;23.00;99.90;;;;;;3627058;39;20046;-88
2021/08/10 16:37:49;;;;;;;9.43;3.50;;;23.10;99.90;;;;;;3626330;39;20050;-85
2021/08/10 16:40:16;;;;;;;6.78;3.67;;;23.10;99.90;;;;;;3632681;39;20130;-91
2021/08/10 16:42:42;;;;;;;6.57;3.80;;;23.10;99.90;;;;;;3626225;39;20042;-87
2021/08/10 16:45:09;;;;;;;7.10;3.47;;;22.70;99.90;;;;;;3632446;39;20046;-86
2021/08/10 16:47:36;;;;;;;7.25;3.85;;;22.80;99.90;;;;;;3624403;39;20070;-88
2021/08/10 16:50:01;;;;;;;6.40;3.33;;;22.80;99.90;;;;;;3628258;39;20050;-88
2021/08/10 16:52:27;;;;;;;10.02;3.80;;;22.70;99.90;;;;;;3625141;39;20061;-88
2021/08/10 16:54:53;;;;;;;5.13;3.75;;;22.70;99.90;;;;;;3629349;39;20051;-89
2021/08/10 16:57:19;;;;;;;7.03;4.75;;;22.60;99.90;;;;;;3623536;39;20100;-87
2021/08/10 16:59:44;;;;;;;10.38;5.45;;;22.60;99.90;;;;;;3620663;39;20058;-88
2021/08/10 17:02:10;;;;;;;6.55;4.20;;;22.40;99.90;;;;;;3624292;39;20065;-91
2021/08/10 17:04:36;;;;;;;9.48;3.95;;;22.20;99.90;;;;;;3623646;39;20432;-84
2021/08/10 17:07:02;;;;;;;7.93;4.07;;;22.00;99.90;;;;;;3615584;39;20152;-87
2021/08/10 17:09:28;;;;;;;6.18;4.22;;;22.00;99.90;;;;;;3617810;39;20058;-86
2021/08/10 17:11:54;;;;;;;8.43;5.28;;;21.90;99.90;;;;;;3617087;39;20047;-88
2021/08/10 17:14:19;;;;;;;11.88;6.05;;;21.60;99.90;;;;;;3620591;39;20058;-89
2021/08/10 17:16:47;;;;;;;9.90;5.40;;;21.60;99.90;;;;;;3626213;39;20633;-86
2021/08/10 17:19:14;;;;;;;10.10;5.40;;;21.70;99.90;;;;;;3619624;39;20115;-87
2021/08/10 17:21:41;;;;;;;10.20;5.88;;;21.70;99.90;;;;;;3624081;39;20043;-88
2021/08/10 17:24:07;;;;;;;12.57;6.38;;;21.90;99.90;;;;;;3629510;39;20090;-88
2021/08/10 17:26:33;;;;;;;11.65;6.55;;;21.80;99.90;;;;;;3622655;39;20329;-85
2021/08/10 17:28:58;;;;;;;8.02;4.30;;;21.60;99.90;;;;;;3621962;39;20043;-88
2021/08/10 17:31:27;;;;;;;7.30;5.28;;;21.80;99.90;;;;;;3618094;39;20405;-89
2021/08/10 17:33:52;;;;;;;9.18;5.25;;;21.60;99.90;;;;;;3619570;39;20051;-88
2021/08/10 17:36:19;;;;;;;7.90;4.70;;;21.50;99.90;;;;;;3617659;39;20061;-88
2021/08/10 17:38:45;;;;;;;8.45;5.45;;;21.50;99.90;;;;;;3618249;39;20484;-86
2021/08/10 17:41:10;;;;;;;6.70;4.45;;;21.30;99.90;;;;;;3616067;39;20055;-88
2021/08/10 17:43:36;;;;;;;10.50;4.93;;;21.30;99.90;;;;;;3618217;39;20052;-88
2021/08/10 17:46:02;;;;;;;13.25;5.70;;;20.90;99.90;;;;;;3619709;39;20274;-86
2021/08/10 17:48:27;;;;;;;9.02;4.72;;;20.80;99.90;;;;;;3625295;39;20062;-88
2021/08/10 17:50:53;;;;;;;10.00;4.63;;;20.70;99.90;;;;;;3618977;39;20058;-85
2021/08/10 17:53:19;;;;;;;11.52;5.95;;;20.80;99.90;;;;;;3627176;39;20035;-86
2021/08/10 17:55:46;;;;;;;8.45;5.28;;;20.70;99.90;;;;;;3634311;39;20223;-88
2021/08/10 17:58:12;;;;;;;9.02;4.70;;;20.70;99.90;;;;;;3634289;39;20417;-85
2021/08/10 18:00:39;;;;;;;10.43;5.32;;;20.50;99.90;;;;;;3627314;39;20050;-86
2021/08/10 18:03:05;;;;;;;7.18;4.68;;;20.50;99.90;;;;;;3623595;39;20058;-87
2021/08/10 18:05:30;;;;;;;13.40;5.95;;;20.60;99.90;;;;;;3635912;39;20173;-87
2021/08/10 18:07:56;;;;;;;15.38;5.68;;;20.50;99.90;;;;;;3627170;39;20150;-86
2021/08/10 18:10:22;;;;;;;8.30;5.57;;;20.20;99.90;;;;;;3617712;39;20097;-86
2021/08/10 18:12:48;;;;;;;6.57;4.60;;;20.00;99.90;;;;;;3632259;39;20050;-87
2021/08/10 18:15:14;;;;;;;9.90;4.38;;;20.20;99.90;;;;;;3638879;39;20042;-87
2021/08/10 18:17:41;;;;;;;10.50;4.70;;;20.10;99.90;;;;;;3648744;39;20058;-88
2021/08/10 18:20:12;;;;;;;10.50;5.25;;;20.00;99.90;;;;;;3632968;39;20178;-87
2021/08/10 18:22:38;;;;;;;9.57;4.93;;;20.10;99.90;;;;;;3638139;39;20054;-86
2021/08/10 18:25:05;;;;;;;10.50;5.85;;;20.00;99.90;;;;;;3631615;39;20062;-85
2021/08/10 18:27:32;;;;;;;10.82;5.30;;;20.30;99.90;;;;;;3636448;39;20042;-89
2021/08/10 18:29:58;;;;;;;13.82;5.78;;;20.20;99.90;;;;;;3616590;39;20133;-86
2021/08/10 18:32:24;;;;;;;9.52;5.05;;;20.20;99.90;;;;;;3635497;39;20098;-85
2021/08/10 18:34:49;;;;;;;12.20;6.25;;;20.10;99.90;;;;;;3633111;39;20050;-86
2021/08/10 18:37:15;;;;;;;10.93;4.88;;;20.00;99.90;;;;;;3626845;39;20058;-85
2021/08/10 18:39:42;;;;;;;13.05;5.82;;;20.10;99.90;;;;;;3629130;39;20042;-85
2021/08/10 18:42:08;;;;;;;14.60;6.32;;;19.90;99.90;;;;;;3635643;39;20053;-85